sensor_id;sensor_type;location;lat;lon;timestamp;temperature;humidity
25328;DHT22;13279;51.300;12.394;2024-01-15T00:02:03;1.80;1.00
25328;DHT22;13279;51.300;12.394;2024-01-15T00:04:31;1.80;1.00
25328;DHT22;13279;51.300;12.394;2024-01-15T00:07:03;1.80;1.00
25328;DHT22;13279;51.300;12.394;2024-01-15T00:09:31;1.80;1.00
25328;DHT22;13279;51.300;12.394;2024-01-15T00:11:59;1.80;1.00
25328;DHT22;13279;51.300;12.394;2024-01-15T00:14:27;1.80;1.00
25328;DHT22;13279;51.300;12.394;2024-01-15T00:16:56;1.80;1.00
25328;DHT22;13279;51.300;12.394;2024-01-15T00:19:24;1.80;1.00
25328;DHT22;13279;51.300;12.394;2024-01-15T00:21:52;1.80;1.00
25328;DHT22;13279;51.300;12.394;2024-01-15T00:24:20;1.80;1.00
25328;DHT22;13279;51.300;12.394;2024-01-15T00:26:47;1.70;1.00
25328;DHT22;13279;51.300;12.394;2024-01-15T00:29:15;1.80;1.00
25328;DHT22;13279;51.300;12.394;2024-01-15T00:31:42;1.80;1.00
25328;DHT22;13279;51.300;12.394;2024-01-15T00:34:10;1.70;1.00
25328;DHT22;13279;51.300;12.394;2024-01-15T00:36:38;1.70;1.00
25328;DHT22;13279;51.300;12.394;2024-01-15T00:39:06;1.70;1.00
25328;DHT22;13279;51.300;12.394;2024-01-15T00:41:33;1.60;1.00
25328;DHT22;13279;51.300;12.394;2024-01-15T00:44:01;1.70;1.00
25328;DHT22;13279;51.300;12.394;2024-01-15T00:46:28;1.70;1.00
25328;DHT22;13279;51.300;12.394;2024-01-15T00:48:56;1.70;1.00
25328;DHT22;13279;51.300;12.394;2024-01-15T00:51:25;1.70;1.00
25328;DHT22;13279;51.300;12.394;2024-01-15T00:53:52;1.70;1.00
25328;DHT22;13279;51.300;12.394;2024-01-15T00:56:20;1.70;1.00
25328;DHT22;13279;51.300;12.394;2024-01-15T00:58:47;1.70;1.00
25328;DHT22;13279;51.300;12.394;2024-01-15T01:01:14;1.70;1.00
25328;DHT22;13279;51.300;12.394;2024-01-15T01:03:42;1.70;1.00
25328;DHT22;13279;51.300;12.394;2024-01-15T01:06:09;1.70;1.00
25328;DHT22;13279;51.300;12.394;2024-01-15T01:08:39;1.70;1.00
25328;DHT22;13279;51.300;12.394;2024-01-15T01:11:06;1.70;1.00
25328;DHT22;13279;51.300;12.394;2024-01-15T01:13:34;1.70;1.00
25328;DHT22;13279;51.300;12.394;2024-01-15T01:16:01;1.70;1.00
25328;DHT22;13279;51.300;12.394;2024-01-15T01:18:29;1.70;1.00
25328;DHT22;13279;51.300;12.394;2024-01-15T01:20:56;1.70;1.00
25328;DHT22;13279;51.300;12.394;2024-01-15T01:23:24;1.60;1.00
25328;DHT22;13279;51.300;12.394;2024-01-15T01:25:53;1.60;1.00
25328;DHT22;13279;51.300;12.394;2024-01-15T01:28:20;1.60;1.00
25328;DHT22;13279;51.300;12.394;2024-01-15T01:30:48;1.60;1.00
25328;DHT22;13279;51.300;12.394;2024-01-15T01:33:15;1.60;1.00
25328;DHT22;13279;51.300;12.394;2024-01-15T01:35:43;1.60;1.00
25328;DHT22;13279;51.300;12.394;2024-01-15T01:38:10;1.60;1.00
25328;DHT22;13279;51.300;12.394;2024-01-15T01:40:38;1.60;1.00
25328;DHT22;13279;51.300;12.394;2024-01-15T01:43:08;1.60;1.00
25328;DHT22;13279;51.300;12.394;2024-01-15T01:45:36;1.60;1.00
25328;DHT22;13279;51.300;12.394;2024-01-15T01:48:04;1.60;1.00
25328;DHT22;13279;51.300;12.394;2024-01-15T01:50:31;1.60;1.00
25328;DHT22;13279;51.300;12.394;2024-01-15T01:53:00;1.50;1.00
25328;DHT22;13279;51.300;12.394;2024-01-15T01:55:29;1.50;1.00
25328;DHT22;13279;51.300;12.394;2024-01-15T01:57:59;1.50;1.00
25328;DHT22;13279;51.300;12.394;2024-01-15T02:00:30;1.50;1.00
25328;DHT22;13279;51.300;12.394;2024-01-15T02:02:58;1.50;1.00
25328;DHT22;13279;51.300;12.394;2024-01-15T02:05:25;1.50;1.00
25328;DHT22;13279;51.300;12.394;2024-01-15T02:07:54;1.50;1.00
25328;DHT22;13279;51.300;12.394;2024-01-15T02:10:21;1.40;1.00
25328;DHT22;13279;51.300;12.394;2024-01-15T02:12:49;1.40;1.00
25328;DHT22;13279;51.300;12.394;2024-01-15T02:15:16;1.40;1.00
25328;DHT22;13279;51.300;12.394;2024-01-15T02:17:59;1.40;1.00
25328;DHT22;13279;51.300;12.394;2024-01-15T02:20:27;1.40;1.00
25328;DHT22;13279;51.300;12.394;2024-01-15T02:23:01;1.30;1.00
25328;DHT22;13279;51.300;12.394;2024-01-15T02:25:28;1.40;1.00
25328;DHT22;13279;51.300;12.394;2024-01-15T02:27:56;1.30;1.00
25328;DHT22;13279;51.300;12.394;2024-01-15T02:30:25;1.30;1.00
25328;DHT22;13279;51.300;12.394;2024-01-15T02:32:53;1.30;1.00
25328;DHT22;13279;51.300;12.394;2024-01-15T02:35:20;1.30;1.00
25328;DHT22;13279;51.300;12.394;2024-01-15T02:37:48;1.30;1.00
25328;DHT22;13279;51.300;12.394;2024-01-15T02:40:17;1.30;1.00
25328;DHT22;13279;51.300;12.394;2024-01-15T02:42:44;1.30;1.00
25328;DHT22;13279;51.300;12.394;2024-01-15T02:45:12;1.30;1.00
25328;DHT22;13279;51.300;12.394;2024-01-15T02:47:39;1.30;1.00
25328;DHT22;13279;51.300;12.394;2024-01-15T02:50:07;1.30;1.00
25328;DHT22;13279;51.300;12.394;2024-01-15T02:52:35;1.40;1.00
25328;DHT22;13279;51.300;12.394;2024-01-15T02:55:02;1.40;1.00
25328;DHT22;13279;51.300;12.394;2024-01-15T02:57:31;1.40;1.00
25328;DHT22;13279;51.300;12.394;2024-01-15T02:59:59;1.40;99.90
25328;DHT22;13279;51.300;12.394;2024-01-15T03:02:26;1.40;99.90
25328;DHT22;13279;51.300;12.394;2024-01-15T03:04:54;1.40;99.90
25328;DHT22;13279;51.300;12.394;2024-01-15T03:07:21;1.40;99.90
25328;DHT22;13279;51.300;12.394;2024-01-15T03:09:48;1.40;99.90
25328;DHT22;13279;51.300;12.394;2024-01-15T03:12:15;1.40;99.90
25328;DHT22;13279;51.300;12.394;2024-01-15T03:14:45;1.40;99.90
25328;DHT22;13279;51.300;12.394;2024-01-15T03:17:13;1.40;99.90
25328;DHT22;13279;51.300;12.394;2024-01-15T03:19:43;1.40;99.90
25328;DHT22;13279;51.300;12.394;2024-01-15T03:22:30;1.30;99.90
25328;DHT22;13279;51.300;12.394;2024-01-15T03:24:58;1.30;99.90
25328;DHT22;13279;51.300;12.394;2024-01-15T03:27:25;1.30;99.90
25328;DHT22;13279;51.300;12.394;2024-01-15T03:29:54;1.30;99.90
25328;DHT22;13279;51.300;12.394;2024-01-15T03:32:21;1.20;1.00
25328;DHT22;13279;51.300;12.394;2024-01-15T03:34:49;1.20;99.90
25328;DHT22;13279;51.300;12.394;2024-01-15T03:37:18;1.20;99.90
25328;DHT22;13279;51.300;12.394;2024-01-15T03:39:45;1.20;99.90
25328;DHT22;13279;51.300;12.394;2024-01-15T03:42:13;1.20;99.90
25328;DHT22;13279;51.300;12.394;2024-01-15T03:44:42;1.10;99.90
25328;DHT22;13279;51.300;12.394;2024-01-15T03:47:10;1.10;1.00
25328;DHT22;13279;51.300;12.394;2024-01-15T03:49:38;1.10;1.00
25328;DHT22;13279;51.300;12.394;2024-01-15T03:52:05;1.10;1.00
25328;DHT22;13279;51.300;12.394;2024-01-15T03:54:33;1.00;1.00
25328;DHT22;13279;51.300;12.394;2024-01-15T03:57:00;1.10;1.00
25328;DHT22;13279;51.300;12.394;2024-01-15T03:59:28;1.10;1.00
25328;DHT22;13279;51.300;12.394;2024-01-15T04:01:55;1.10;1.00
25328;DHT22;13279;51.300;12.394;2024-01-15T04:04:24;1.10;1.00
25328;DHT22;13279;51.300;12.394;2024-01-15T04:06:51;1.10;1.00
25328;DHT22;13279;51.300;12.394;2024-01-15T04:09:19;1.10;1.00
25328;DHT22;13279;51.300;12.394;2024-01-15T04:11:46;1.10;1.00
25328;DHT22;13279;51.300;12.394;2024-01-15T04:14:14;1.20;1.00
25328;DHT22;13279;51.300;12.394;2024-01-15T04:16:41;1.20;1.00
25328;DHT22;13279;51.300;12.394;2024-01-15T04:19:09;1.20;1.00
25328;DHT22;13279;51.300;12.394;2024-01-15T04:21:37;1.20;1.00
25328;DHT22;13279;51.300;12.394;2024-01-15T04:24:05;1.20;1.00
25328;DHT22;13279;51.300;12.394;2024-01-15T04:26:32;1.20;99.90
25328;DHT22;13279;51.300;12.394;2024-01-15T04:29:00;1.20;99.90
25328;DHT22;13279;51.300;12.394;2024-01-15T04:31:27;1.20;99.90
25328;DHT22;13279;51.300;12.394;2024-01-15T04:33:55;1.10;99.90
25328;DHT22;13279;51.300;12.394;2024-01-15T04:36:22;1.10;1.00
25328;DHT22;13279;51.300;12.394;2024-01-15T04:38:51;1.00;1.00
25328;DHT22;13279;51.300;12.394;2024-01-15T04:41:18;1.00;1.00
25328;DHT22;13279;51.300;12.394;2024-01-15T04:43:46;0.70;1.00
25328;DHT22;13279;51.300;12.394;2024-01-15T04:46:13;0.80;1.00
25328;DHT22;13279;51.300;12.394;2024-01-15T04:48:41;0.90;1.00
25328;DHT22;13279;51.300;12.394;2024-01-15T04:51:09;0.90;1.00
25328;DHT22;13279;51.300;12.394;2024-01-15T04:53:36;0.80;1.00
25328;DHT22;13279;51.300;12.394;2024-01-15T04:56:05;0.80;1.00
25328;DHT22;13279;51.300;12.394;2024-01-15T04:58:33;0.80;1.00
25328;DHT22;13279;51.300;12.394;2024-01-15T05:01:00;0.80;1.00
25328;DHT22;13279;51.300;12.394;2024-01-15T05:03:28;0.80;1.00
25328;DHT22;13279;51.300;12.394;2024-01-15T05:05:55;0.90;1.00
25328;DHT22;13279;51.300;12.394;2024-01-15T05:08:23;0.90;1.00
25328;DHT22;13279;51.300;12.394;2024-01-15T05:10:50;0.90;1.00
25328;DHT22;13279;51.300;12.394;2024-01-15T05:13:19;1.00;99.90
25328;DHT22;13279;51.300;12.394;2024-01-15T05:15:46;1.00;99.90
25328;DHT22;13279;51.300;12.394;2024-01-15T05:18:14;1.00;99.90
25328;DHT22;13279;51.300;12.394;2024-01-15T05:20:41;1.10;99.90
25328;DHT22;13279;51.300;12.394;2024-01-15T05:23:08;1.10;99.90
25328;DHT22;13279;51.300;12.394;2024-01-15T05:25:35;1.10;99.90
25328;DHT22;13279;51.300;12.394;2024-01-15T05:28:04;1.10;99.90
25328;DHT22;13279;51.300;12.394;2024-01-15T05:30:32;1.10;99.90
25328;DHT22;13279;51.300;12.394;2024-01-15T05:33:00;1.20;95.60
25328;DHT22;13279;51.300;12.394;2024-01-15T05:35:28;1.10;39.40
25328;DHT22;13279;51.300;12.394;2024-01-15T05:37:56;1.20;1.00
25328;DHT22;13279;51.300;12.394;2024-01-15T05:40:23;1.20;1.00
25328;DHT22;13279;51.300;12.394;2024-01-15T05:42:51;1.20;22.50
25328;DHT22;13279;51.300;12.394;2024-01-15T05:45:18;1.10;67.70
25328;DHT22;13279;51.300;12.394;2024-01-15T05:47:48;1.10;20.00
25328;DHT22;13279;51.300;12.394;2024-01-15T05:50:15;1.10;13.60
25328;DHT22;13279;51.300;12.394;2024-01-15T05:52:43;1.20;1.00
25328;DHT22;13279;51.300;12.394;2024-01-15T05:55:10;1.20;1.00
25328;DHT22;13279;51.300;12.394;2024-01-15T05:57:38;1.20;1.00
25328;DHT22;13279;51.300;12.394;2024-01-15T06:00:05;1.20;17.30
25328;DHT22;13279;51.300;12.394;2024-01-15T06:02:35;1.20;87.80
25328;DHT22;13279;51.300;12.394;2024-01-15T06:05:03;1.20;81.80
25328;DHT22;13279;51.300;12.394;2024-01-15T06:07:31;1.20;24.80
25328;DHT22;13279;51.300;12.394;2024-01-15T06:09:58;1.10;45.60
25328;DHT22;13279;51.300;12.394;2024-01-15T06:12:26;1.10;99.90
25328;DHT22;13279;51.300;12.394;2024-01-15T06:14:53;1.10;1.00
25328;DHT22;13279;51.300;12.394;2024-01-15T06:17:21;1.10;66.00
25328;DHT22;13279;51.300;12.394;2024-01-15T06:19:48;1.10;29.80
25328;DHT22;13279;51.300;12.394;2024-01-15T06:22:18;1.10;29.90
25328;DHT22;13279;51.300;12.394;2024-01-15T06:24:45;1.10;89.00
25328;DHT22;13279;51.300;12.394;2024-01-15T06:27:12;1.10;1.00
25328;DHT22;13279;51.300;12.394;2024-01-15T06:29:44;1.10;1.00
25328;DHT22;13279;51.300;12.394;2024-01-15T06:32:12;1.10;1.00
25328;DHT22;13279;51.300;12.394;2024-01-15T06:34:39;1.20;1.00
25328;DHT22;13279;51.300;12.394;2024-01-15T06:37:07;1.20;1.00
25328;DHT22;13279;51.300;12.394;2024-01-15T06:39:35;1.20;1.00
25328;DHT22;13279;51.300;12.394;2024-01-15T06:42:03;1.20;1.00
25328;DHT22;13279;51.300;12.394;2024-01-15T06:44:31;1.30;1.00
25328;DHT22;13279;51.300;12.394;2024-01-15T06:46:58;1.20;1.00
25328;DHT22;13279;51.300;12.394;2024-01-15T06:49:28;1.20;1.00
25328;DHT22;13279;51.300;12.394;2024-01-15T06:51:56;1.20;1.00
25328;DHT22;13279;51.300;12.394;2024-01-15T06:54:23;1.30;1.00
25328;DHT22;13279;51.300;12.394;2024-01-15T06:56:54;1.20;1.00
25328;DHT22;13279;51.300;12.394;2024-01-15T06:59:21;1.20;1.00
25328;DHT22;13279;51.300;12.394;2024-01-15T07:01:48;1.20;1.00
25328;DHT22;13279;51.300;12.394;2024-01-15T07:04:16;1.20;1.00
25328;DHT22;13279;51.300;12.394;2024-01-15T07:06:44;1.20;1.00
25328;DHT22;13279;51.300;12.394;2024-01-15T07:09:11;1.20;1.00
25328;DHT22;13279;51.300;12.394;2024-01-15T07:11:43;1.30;1.00
25328;DHT22;13279;51.300;12.394;2024-01-15T07:14:13;1.30;1.00
25328;DHT22;13279;51.300;12.394;2024-01-15T07:16:40;1.20;1.00
25328;DHT22;13279;51.300;12.394;2024-01-15T07:19:07;1.30;1.00
25328;DHT22;13279;51.300;12.394;2024-01-15T07:21:35;1.30;1.00
25328;DHT22;13279;51.300;12.394;2024-01-15T07:24:02;1.30;1.00
25328;DHT22;13279;51.300;12.394;2024-01-15T07:26:30;1.30;1.00
25328;DHT22;13279;51.300;12.394;2024-01-15T07:28:57;1.30;1.00
25328;DHT22;13279;51.300;12.394;2024-01-15T07:31:27;1.30;1.00
25328;DHT22;13279;51.300;12.394;2024-01-15T07:33:54;1.40;1.00
25328;DHT22;13279;51.300;12.394;2024-01-15T07:36:22;1.40;99.90
25328;DHT22;13279;51.300;12.394;2024-01-15T07:38:49;1.40;99.90
25328;DHT22;13279;51.300;12.394;2024-01-15T07:41:16;1.40;99.90
25328;DHT22;13279;51.300;12.394;2024-01-15T07:43:44;1.40;99.90
25328;DHT22;13279;51.300;12.394;2024-01-15T07:46:11;1.40;99.90
25328;DHT22;13279;51.300;12.394;2024-01-15T07:48:40;1.40;99.90
25328;DHT22;13279;51.300;12.394;2024-01-15T07:51:07;1.40;99.90
25328;DHT22;13279;51.300;12.394;2024-01-15T07:53:34;1.50;99.90
25328;DHT22;13279;51.300;12.394;2024-01-15T07:56:02;1.40;99.90
25328;DHT22;13279;51.300;12.394;2024-01-15T07:58:29;1.50;99.90
25328;DHT22;13279;51.300;12.394;2024-01-15T08:00:56;1.50;99.90
25328;DHT22;13279;51.300;12.394;2024-01-15T08:03:24;1.50;99.90
25328;DHT22;13279;51.300;12.394;2024-01-15T08:05:53;1.50;99.90
25328;DHT22;13279;51.300;12.394;2024-01-15T08:08:22;1.50;25.40
25328;DHT22;13279;51.300;12.394;2024-01-15T08:10:49;1.50;99.90
25328;DHT22;13279;51.300;12.394;2024-01-15T08:13:16;1.50;99.90
25328;DHT22;13279;51.300;12.394;2024-01-15T08:15:44;1.50;73.10
25328;DHT22;13279;51.300;12.394;2024-01-15T08:18:12;1.50;36.00
25328;DHT22;13279;51.300;12.394;2024-01-15T08:20:39;1.50;1.00
25328;DHT22;13279;51.300;12.394;2024-01-15T08:23:08;1.50;10.90
25328;DHT22;13279;51.300;12.394;2024-01-15T08:25:36;1.50;1.00
25328;DHT22;13279;51.300;12.394;2024-01-15T08:28:03;1.50;1.00
25328;DHT22;13279;51.300;12.394;2024-01-15T08:30:31;1.50;19.00
25328;DHT22;13279;51.300;12.394;2024-01-15T08:32:58;1.60;1.00
25328;DHT22;13279;51.300;12.394;2024-01-15T08:35:26;1.50;1.00
25328;DHT22;13279;51.300;12.394;2024-01-15T08:37:53;1.50;1.00
25328;DHT22;13279;51.300;12.394;2024-01-15T08:40:22;1.60;1.00
25328;DHT22;13279;51.300;12.394;2024-01-15T08:42:57;1.60;1.00
25328;DHT22;13279;51.300;12.394;2024-01-15T08:45:34;1.70;1.00
25328;DHT22;13279;51.300;12.394;2024-01-15T08:48:01;1.70;1.00
25328;DHT22;13279;51.300;12.394;2024-01-15T08:50:30;1.70;99.90
25328;DHT22;13279;51.300;12.394;2024-01-15T08:52:58;1.80;99.90
25328;DHT22;13279;51.300;12.394;2024-01-15T08:55:27;1.90;99.90
25328;DHT22;13279;51.300;12.394;2024-01-15T08:57:54;1.90;1.00
25328;DHT22;13279;51.300;12.394;2024-01-15T09:00:22;1.90;1.00
25328;DHT22;13279;51.300;12.394;2024-01-15T09:02:49;2.00;1.00
25328;DHT22;13279;51.300;12.394;2024-01-15T09:05:17;2.10;99.90
25328;DHT22;13279;51.300;12.394;2024-01-15T09:07:44;2.30;99.90
25328;DHT22;13279;51.300;12.394;2024-01-15T09:10:13;2.40;1.00
25328;DHT22;13279;51.300;12.394;2024-01-15T09:12:42;2.40;1.00
25328;DHT22;13279;51.300;12.394;2024-01-15T09:15:09;2.30;99.90
25328;DHT22;13279;51.300;12.394;2024-01-15T09:17:37;2.30;1.00
25328;DHT22;13279;51.300;12.394;2024-01-15T09:20:07;2.20;1.00
25328;DHT22;13279;51.300;12.394;2024-01-15T09:22:34;2.20;1.00
25328;DHT22;13279;51.300;12.394;2024-01-15T09:25:01;2.20;1.00
25328;DHT22;13279;51.300;12.394;2024-01-15T09:27:29;2.10;1.00
25328;DHT22;13279;51.300;12.394;2024-01-15T09:29:58;2.00;1.00
25328;DHT22;13279;51.300;12.394;2024-01-15T09:32:25;2.10;1.00
25328;DHT22;13279;51.300;12.394;2024-01-15T09:34:53;2.10;99.90
25328;DHT22;13279;51.300;12.394;2024-01-15T09:37:21;2.10;1.00
25328;DHT22;13279;51.300;12.394;2024-01-15T09:39:50;2.10;79.00
25328;DHT22;13279;51.300;12.394;2024-01-15T09:42:17;2.20;1.00
25328;DHT22;13279;51.300;12.394;2024-01-15T09:44:45;2.20;1.00
25328;DHT22;13279;51.300;12.394;2024-01-15T09:47:15;2.30;1.00
25328;DHT22;13279;51.300;12.394;2024-01-15T09:49:43;2.40;1.00
25328;DHT22;13279;51.300;12.394;2024-01-15T09:52:11;2.50;1.00
25328;DHT22;13279;51.300;12.394;2024-01-15T09:54:38;2.60;99.90
25328;DHT22;13279;51.300;12.394;2024-01-15T09:57:06;2.70;99.90
25328;DHT22;13279;51.300;12.394;2024-01-15T09:59:34;2.80;1.00
25328;DHT22;13279;51.300;12.394;2024-01-15T10:02:03;2.80;1.00
25328;DHT22;13279;51.300;12.394;2024-01-15T10:04:32;2.80;1.00
25328;DHT22;13279;51.300;12.394;2024-01-15T10:07:00;2.60;99.90
25328;DHT22;13279;51.300;12.394;2024-01-15T10:09:28;2.50;1.00
25328;DHT22;13279;51.300;12.394;2024-01-15T10:11:56;2.50;1.00
25328;DHT22;13279;51.300;12.394;2024-01-15T10:14:23;2.60;1.00
25328;DHT22;13279;51.300;12.394;2024-01-15T10:16:51;2.70;1.00
25328;DHT22;13279;51.300;12.394;2024-01-15T10:19:18;2.70;1.00
25328;DHT22;13279;51.300;12.394;2024-01-15T10:21:47;2.80;99.90
25328;DHT22;13279;51.300;12.394;2024-01-15T10:24:14;2.80;1.00
25328;DHT22;13279;51.300;12.394;2024-01-15T10:26:42;2.80;99.90
25328;DHT22;13279;51.300;12.394;2024-01-15T10:29:10;2.70;99.90
25328;DHT22;13279;51.300;12.394;2024-01-15T10:31:38;2.60;1.00
25328;DHT22;13279;51.300;12.394;2024-01-15T10:34:12;2.60;1.00
25328;DHT22;13279;51.300;12.394;2024-01-15T10:36:41;2.60;1.00
25328;DHT22;13279;51.300;12.394;2024-01-15T10:39:15;2.60;1.00
25328;DHT22;13279;51.300;12.394;2024-01-15T10:41:42;2.50;1.00
25328;DHT22;13279;51.300;12.394;2024-01-15T10:44:10;2.50;1.00
25328;DHT22;13279;51.300;12.394;2024-01-15T10:46:38;2.60;1.00
25328;DHT22;13279;51.300;12.394;2024-01-15T10:49:06;2.60;1.00
25328;DHT22;13279;51.300;12.394;2024-01-15T10:51:36;2.60;1.00
25328;DHT22;13279;51.300;12.394;2024-01-15T10:54:04;2.60;1.00
25328;DHT22;13279;51.300;12.394;2024-01-15T10:56:33;2.70;1.00
25328;DHT22;13279;51.300;12.394;2024-01-15T10:59:02;2.60;1.00
25328;DHT22;13279;51.300;12.394;2024-01-15T11:01:30;2.60;1.00
25328;DHT22;13279;51.300;12.394;2024-01-15T11:04:00;2.60;1.00
25328;DHT22;13279;51.300;12.394;2024-01-15T11:06:28;2.60;1.00
25328;DHT22;13279;51.300;12.394;2024-01-15T11:09:07;2.60;1.00
25328;DHT22;13279;51.300;12.394;2024-01-15T11:11:40;2.60;1.00
25328;DHT22;13279;51.300;12.394;2024-01-15T11:14:08;2.70;1.00
25328;DHT22;13279;51.300;12.394;2024-01-15T11:16:55;2.70;1.00
25328;DHT22;13279;51.300;12.394;2024-01-15T11:19:25;2.70;1.00
25328;DHT22;13279;51.300;12.394;2024-01-15T11:21:53;2.70;1.00
25328;DHT22;13279;51.300;12.394;2024-01-15T11:24:35;2.70;1.00
25328;DHT22;13279;51.300;12.394;2024-01-15T11:27:04;2.80;1.00
25328;DHT22;13279;51.300;12.394;2024-01-15T11:29:33;2.80;1.00
25328;DHT22;13279;51.300;12.394;2024-01-15T11:32:03;2.80;99.90
25328;DHT22;13279;51.300;12.394;2024-01-15T11:34:54;2.70;99.90
25328;DHT22;13279;51.300;12.394;2024-01-15T11:37:24;2.70;1.00
25328;DHT22;13279;51.300;12.394;2024-01-15T11:39:52;2.60;1.00
25328;DHT22;13279;51.300;12.394;2024-01-15T11:42:22;2.60;1.00
25328;DHT22;13279;51.300;12.394;2024-01-15T11:44:50;2.60;1.00
25328;DHT22;13279;51.300;12.394;2024-01-15T11:47:44;2.60;1.00
25328;DHT22;13279;51.300;12.394;2024-01-15T11:50:17;2.70;1.00
25328;DHT22;13279;51.300;12.394;2024-01-15T11:52:53;2.80;1.00
25328;DHT22;13279;51.300;12.394;2024-01-15T11:55:27;2.80;1.00
25328;DHT22;13279;51.300;12.394;2024-01-15T11:57:58;2.80;1.00
25328;DHT22;13279;51.300;12.394;2024-01-15T12:00:28;2.80;1.00
25328;DHT22;13279;51.300;12.394;2024-01-15T12:02:55;2.90;1.00
25328;DHT22;13279;51.300;12.394;2024-01-15T12:05:27;2.80;99.90
25328;DHT22;13279;51.300;12.394;2024-01-15T12:07:55;2.80;99.90
25328;DHT22;13279;51.300;12.394;2024-01-15T12:10:23;2.80;99.90
25328;DHT22;13279;51.300;12.394;2024-01-15T12:12:59;2.70;1.00
25328;DHT22;13279;51.300;12.394;2024-01-15T12:15:28;2.70;1.00
25328;DHT22;13279;51.300;12.394;2024-01-15T12:17:57;2.70;1.00
25328;DHT22;13279;51.300;12.394;2024-01-15T12:20:24;2.70;1.00
25328;DHT22;13279;51.300;12.394;2024-01-15T12:22:52;2.80;1.00
25328;DHT22;13279;51.300;12.394;2024-01-15T12:25:21;2.80;1.00
25328;DHT22;13279;51.300;12.394;2024-01-15T12:27:49;2.80;1.00
25328;DHT22;13279;51.300;12.394;2024-01-15T12:30:19;2.80;1.00
25328;DHT22;13279;51.300;12.394;2024-01-15T12:32:47;2.80;1.00
25328;DHT22;13279;51.300;12.394;2024-01-15T12:35:15;2.80;1.00
25328;DHT22;13279;51.300;12.394;2024-01-15T12:37:43;2.80;1.00
25328;DHT22;13279;51.300;12.394;2024-01-15T12:40:12;2.70;1.00
25328;DHT22;13279;51.300;12.394;2024-01-15T12:42:40;2.80;1.00
25328;DHT22;13279;51.300;12.394;2024-01-15T12:45:10;2.80;1.00
25328;DHT22;13279;51.300;12.394;2024-01-15T12:47:40;2.80;1.00
25328;DHT22;13279;51.300;12.394;2024-01-15T12:50:09;2.90;1.00
25328;DHT22;13279;51.300;12.394;2024-01-15T12:52:39;2.90;1.00
25328;DHT22;13279;51.300;12.394;2024-01-15T12:55:08;2.80;1.00
25328;DHT22;13279;51.300;12.394;2024-01-15T12:57:36;2.80;1.00
25328;DHT22;13279;51.300;12.394;2024-01-15T13:00:05;2.80;1.00
25328;DHT22;13279;51.300;12.394;2024-01-15T13:02:33;2.80;1.00
25328;DHT22;13279;51.300;12.394;2024-01-15T13:05:03;2.70;1.00
25328;DHT22;13279;51.300;12.394;2024-01-15T13:07:32;2.70;1.00
25328;DHT22;13279;51.300;12.394;2024-01-15T13:09:59;2.70;1.00
25328;DHT22;13279;51.300;12.394;2024-01-15T13:12:26;2.70;1.00
25328;DHT22;13279;51.300;12.394;2024-01-15T13:14:54;2.70;1.00
25328;DHT22;13279;51.300;12.394;2024-01-15T13:17:22;2.70;1.00
25328;DHT22;13279;51.300;12.394;2024-01-15T13:19:49;2.70;1.00
25328;DHT22;13279;51.300;12.394;2024-01-15T13:22:18;2.70;1.00
25328;DHT22;13279;51.300;12.394;2024-01-15T13:24:45;2.70;1.00
25328;DHT22;13279;51.300;12.394;2024-01-15T13:27:13;2.70;99.90
25328;DHT22;13279;51.300;12.394;2024-01-15T13:29:40;2.70;1.00
25328;DHT22;13279;51.300;12.394;2024-01-15T13:32:08;2.70;1.00
25328;DHT22;13279;51.300;12.394;2024-01-15T13:34:37;2.70;1.00
25328;DHT22;13279;51.300;12.394;2024-01-15T13:37:04;2.70;1.00
25328;DHT22;13279;51.300;12.394;2024-01-15T13:39:32;2.70;1.00
25328;DHT22;13279;51.300;12.394;2024-01-15T13:42:00;2.70;1.00
25328;DHT22;13279;51.300;12.394;2024-01-15T13:44:27;2.70;1.00
25328;DHT22;13279;51.300;12.394;2024-01-15T13:46:54;2.70;1.00
25328;DHT22;13279;51.300;12.394;2024-01-15T13:49:23;2.70;1.00
25328;DHT22;13279;51.300;12.394;2024-01-15T13:51:50;2.70;1.00
25328;DHT22;13279;51.300;12.394;2024-01-15T13:54:18;2.70;1.00
25328;DHT22;13279;51.300;12.394;2024-01-15T13:56:48;2.70;1.00
25328;DHT22;13279;51.300;12.394;2024-01-15T13:59:16;2.70;1.00
25328;DHT22;13279;51.300;12.394;2024-01-15T14:01:43;2.80;1.00
25328;DHT22;13279;51.300;12.394;2024-01-15T14:04:12;2.70;1.00
25328;DHT22;13279;51.300;12.394;2024-01-15T14:06:40;2.70;1.00
25328;DHT22;13279;51.300;12.394;2024-01-15T14:09:08;2.70;1.00
25328;DHT22;13279;51.300;12.394;2024-01-15T14:11:37;2.70;1.00
25328;DHT22;13279;51.300;12.394;2024-01-15T14:14:06;2.70;1.00
25328;DHT22;13279;51.300;12.394;2024-01-15T14:16:34;2.60;1.00
25328;DHT22;13279;51.300;12.394;2024-01-15T14:19:01;2.60;1.00
25328;DHT22;13279;51.300;12.394;2024-01-15T14:21:29;2.60;1.00
25328;DHT22;13279;51.300;12.394;2024-01-15T14:23:58;2.60;1.00
25328;DHT22;13279;51.300;12.394;2024-01-15T14:26:25;2.60;1.00
25328;DHT22;13279;51.300;12.394;2024-01-15T14:28:52;2.60;20.00
25328;DHT22;13279;51.300;12.394;2024-01-15T14:31:21;2.60;99.90
25328;DHT22;13279;51.300;12.394;2024-01-15T14:33:50;2.50;99.90
25328;DHT22;13279;51.300;12.394;2024-01-15T14:36:18;2.50;1.00
25328;DHT22;13279;51.300;12.394;2024-01-15T14:38:46;2.50;1.00
25328;DHT22;13279;51.300;12.394;2024-01-15T14:41:15;2.50;1.00
25328;DHT22;13279;51.300;12.394;2024-01-15T14:43:43;2.50;1.00
25328;DHT22;13279;51.300;12.394;2024-01-15T14:46:11;2.50;23.40
25328;DHT22;13279;51.300;12.394;2024-01-15T14:48:40;2.40;99.90
25328;DHT22;13279;51.300;12.394;2024-01-15T14:51:08;2.40;99.90
25328;DHT22;13279;51.300;12.394;2024-01-15T14:53:35;2.40;1.00
25328;DHT22;13279;51.300;12.394;2024-01-15T14:56:03;2.40;1.00
25328;DHT22;13279;51.300;12.394;2024-01-15T14:58:31;2.40;1.00
25328;DHT22;13279;51.300;12.394;2024-01-15T15:00:59;2.40;1.00
25328;DHT22;13279;51.300;12.394;2024-01-15T15:03:27;2.40;1.00
25328;DHT22;13279;51.300;12.394;2024-01-15T15:05:56;2.40;1.00
25328;DHT22;13279;51.300;12.394;2024-01-15T15:08:24;2.30;1.00
25328;DHT22;13279;51.300;12.394;2024-01-15T15:10:51;2.30;91.60
25328;DHT22;13279;51.300;12.394;2024-01-15T15:13:19;2.40;99.90
25328;DHT22;13279;51.300;12.394;2024-01-15T15:15:47;2.30;99.90
25328;DHT22;13279;51.300;12.394;2024-01-15T15:18:14;2.30;99.90
25328;DHT22;13279;51.300;12.394;2024-01-15T15:20:42;2.30;99.90
25328;DHT22;13279;51.300;12.394;2024-01-15T15:23:10;2.30;1.00
25328;DHT22;13279;51.300;12.394;2024-01-15T15:25:37;2.20;1.00
25328;DHT22;13279;51.300;12.394;2024-01-15T15:28:05;2.30;1.00
25328;DHT22;13279;51.300;12.394;2024-01-15T15:30:34;2.30;1.00
25328;DHT22;13279;51.300;12.394;2024-01-15T15:33:02;2.20;1.00
25328;DHT22;13279;51.300;12.394;2024-01-15T15:35:31;2.20;1.00
25328;DHT22;13279;51.300;12.394;2024-01-15T15:37:59;2.20;1.00
25328;DHT22;13279;51.300;12.394;2024-01-15T15:40:27;2.20;1.00
25328;DHT22;13279;51.300;12.394;2024-01-15T15:42:55;2.20;1.00
25328;DHT22;13279;51.300;12.394;2024-01-15T15:45:22;2.20;1.00
25328;DHT22;13279;51.300;12.394;2024-01-15T15:47:50;2.10;77.70
25328;DHT22;13279;51.300;12.394;2024-01-15T15:50:18;2.10;99.90